sensor_id;sensor_type;location;lat;lon;timestamp;temperature;humidity
33837;DHT22;20140;49.356;8.812;2022-12-29T00:02:12;6.50;99.90
33837;DHT22;20140;49.356;8.812;2022-12-29T00:04:37;6.50;99.90
33837;DHT22;20140;49.356;8.812;2022-12-29T00:07:04;6.50;99.90
33837;DHT22;20140;49.356;8.812;2022-12-29T00:09:30;6.30;99.90
33837;DHT22;20140;49.356;8.812;2022-12-29T00:11:56;6.30;99.90
33837;DHT22;20140;49.356;8.812;2022-12-29T00:14:22;6.20;99.90
33837;DHT22;20140;49.356;8.812;2022-12-29T00:17:06;6.40;99.90
33837;DHT22;20140;49.356;8.812;2022-12-29T00:19:31;6.50;99.90
33837;DHT22;20140;49.356;8.812;2022-12-29T00:22:16;6.60;99.90
33837;DHT22;20140;49.356;8.812;2022-12-29T00:25:01;6.70;99.90
33837;DHT22;20140;49.356;8.812;2022-12-29T00:27:27;6.80;99.90
33837;DHT22;20140;49.356;8.812;2022-12-29T00:30:14;6.70;99.90
33837;DHT22;20140;49.356;8.812;2022-12-29T00:32:59;6.70;99.90
33837;DHT22;20140;49.356;8.812;2022-12-29T00:36:02;6.90;99.90
33837;DHT22;20140;49.356;8.812;2022-12-29T00:38:31;6.90;99.90
33837;DHT22;20140;49.356;8.812;2022-12-29T00:41:16;6.90;99.90
33837;DHT22;20140;49.356;8.812;2022-12-29T00:44:01;7.00;99.90
33837;DHT22;20140;49.356;8.812;2022-12-29T00:46:33;7.00;99.90
33837;DHT22;20140;49.356;8.812;2022-12-29T00:48:59;7.00;99.90
33837;DHT22;20140;49.356;8.812;2022-12-29T00:51:44;6.90;99.90
33837;DHT22;20140;49.356;8.812;2022-12-29T00:54:09;7.30;99.90
33837;DHT22;20140;49.356;8.812;2022-12-29T00:56:35;7.30;99.90
33837;DHT22;20140;49.356;8.812;2022-12-29T00:59:02;7.40;99.90
33837;DHT22;20140;49.356;8.812;2022-12-29T01:01:27;7.80;99.90
33837;DHT22;20140;49.356;8.812;2022-12-29T01:03:53;8.30;99.90
33837;DHT22;20140;49.356;8.812;2022-12-29T01:06:19;8.70;99.90
33837;DHT22;20140;49.356;8.812;2022-12-29T01:08:44;9.20;99.90
33837;DHT22;20140;49.356;8.812;2022-12-29T01:11:11;9.60;99.90
33837;DHT22;20140;49.356;8.812;2022-12-29T01:13:38;9.80;99.90
33837;DHT22;20140;49.356;8.812;2022-12-29T01:16:04;10.00;99.90
33837;DHT22;20140;49.356;8.812;2022-12-29T01:18:30;10.20;99.90
33837;DHT22;20140;49.356;8.812;2022-12-29T01:21:04;10.40;99.90
33837;DHT22;20140;49.356;8.812;2022-12-29T01:23:30;10.50;99.90
33837;DHT22;20140;49.356;8.812;2022-12-29T01:25:56;10.80;99.90
33837;DHT22;20140;49.356;8.812;2022-12-29T01:28:22;11.00;99.90
33837;DHT22;20140;49.356;8.812;2022-12-29T01:30:47;11.00;99.90
33837;DHT22;20140;49.356;8.812;2022-12-29T01:33:13;11.10;99.90
33837;DHT22;20140;49.356;8.812;2022-12-29T01:35:39;11.10;99.90
33837;DHT22;20140;49.356;8.812;2022-12-29T01:38:04;11.10;99.90
33837;DHT22;20140;49.356;8.812;2022-12-29T01:40:30;11.20;99.90
33837;DHT22;20140;49.356;8.812;2022-12-29T01:42:56;11.40;99.90
33837;DHT22;20140;49.356;8.812;2022-12-29T01:45:21;11.40;99.90
33837;DHT22;20140;49.356;8.812;2022-12-29T01:47:57;11.50;99.90
33837;DHT22;20140;49.356;8.812;2022-12-29T01:50:38;11.40;99.90
33837;DHT22;20140;49.356;8.812;2022-12-29T01:53:31;11.40;99.90
33837;DHT22;20140;49.356;8.812;2022-12-29T01:55:59;11.40;99.90
33837;DHT22;20140;49.356;8.812;2022-12-29T01:58:30;11.40;99.90
33837;DHT22;20140;49.356;8.812;2022-12-29T02:00:57;11.40;99.90
33837;DHT22;20140;49.356;8.812;2022-12-29T02:03:25;11.40;99.90
33837;DHT22;20140;49.356;8.812;2022-12-29T02:05:58;11.40;99.90
33837;DHT22;20140;49.356;8.812;2022-12-29T02:08:28;11.30;99.90
33837;DHT22;20140;49.356;8.812;2022-12-29T02:10:56;11.40;99.90
33837;DHT22;20140;49.356;8.812;2022-12-29T02:13:24;11.40;99.90
33837;DHT22;20140;49.356;8.812;2022-12-29T02:16:18;11.30;99.90
33837;DHT22;20140;49.356;8.812;2022-12-29T02:18:59;11.10;99.90
33837;DHT22;20140;49.356;8.812;2022-12-29T02:24:59;10.80;99.90
33837;DHT22;20140;49.356;8.812;2022-12-29T02:30:15;10.70;99.90
33837;DHT22;20140;49.356;8.812;2022-12-29T02:32:54;10.70;99.90
33837;DHT22;20140;49.356;8.812;2022-12-29T02:35:38;10.70;99.90
33837;DHT22;20140;49.356;8.812;2022-12-29T02:38:20;10.70;99.90
33837;DHT22;20140;49.356;8.812;2022-12-29T02:41:01;10.60;99.90
33837;DHT22;20140;49.356;8.812;2022-12-29T02:43:34;10.60;99.90
33837;DHT22;20140;49.356;8.812;2022-12-29T02:46:21;10.60;99.90
33837;DHT22;20140;49.356;8.812;2022-12-29T02:49:17;10.70;99.90
33837;DHT22;20140;49.356;8.812;2022-12-29T02:54:29;10.70;99.90
33837;DHT22;20140;49.356;8.812;2022-12-29T02:59:47;10.60;99.90
33837;DHT22;20140;49.356;8.812;2022-12-29T03:15:59;10.40;99.90
33837;DHT22;20140;49.356;8.812;2022-12-29T03:18:32;10.40;99.90
33837;DHT22;20140;49.356;8.812;2022-12-29T03:24:14;10.30;99.90
33837;DHT22;20140;49.356;8.812;2022-12-29T03:26:41;10.30;99.90
33837;DHT22;20140;49.356;8.812;2022-12-29T03:29:08;10.30;99.90
33837;DHT22;20140;49.356;8.812;2022-12-29T03:31:35;10.30;99.90
33837;DHT22;20140;49.356;8.812;2022-12-29T03:34:01;10.30;99.90
33837;DHT22;20140;49.356;8.812;2022-12-29T03:36:30;10.30;99.90
33837;DHT22;20140;49.356;8.812;2022-12-29T03:39:05;10.40;99.90
33837;DHT22;20140;49.356;8.812;2022-12-29T03:41:34;10.40;99.90
33837;DHT22;20140;49.356;8.812;2022-12-29T03:44:00;10.50;99.90
33837;DHT22;20140;49.356;8.812;2022-12-29T03:46:25;10.60;99.90
33837;DHT22;20140;49.356;8.812;2022-12-29T03:48:51;10.60;99.90
33837;DHT22;20140;49.356;8.812;2022-12-29T03:51:16;10.60;99.90
33837;DHT22;20140;49.356;8.812;2022-12-29T03:53:42;10.60;99.90
33837;DHT22;20140;49.356;8.812;2022-12-29T03:56:07;10.80;99.90
33837;DHT22;20140;49.356;8.812;2022-12-29T03:58:33;10.80;99.90
33837;DHT22;20140;49.356;8.812;2022-12-29T04:00:58;10.80;99.90
33837;DHT22;20140;49.356;8.812;2022-12-29T04:03:24;10.80;99.90
33837;DHT22;20140;49.356;8.812;2022-12-29T04:05:49;10.80;99.90
33837;DHT22;20140;49.356;8.812;2022-12-29T04:08:15;10.90;99.90
33837;DHT22;20140;49.356;8.812;2022-12-29T04:10:40;10.90;99.90
33837;DHT22;20140;49.356;8.812;2022-12-29T04:13:06;10.90;99.90
33837;DHT22;20140;49.356;8.812;2022-12-29T04:15:31;11.00;99.90
33837;DHT22;20140;49.356;8.812;2022-12-29T04:17:57;11.10;99.90
33837;DHT22;20140;49.356;8.812;2022-12-29T04:20:23;11.20;99.90
33837;DHT22;20140;49.356;8.812;2022-12-29T04:23:07;11.20;99.90
33837;DHT22;20140;49.356;8.812;2022-12-29T04:25:33;11.20;99.90
33837;DHT22;20140;49.356;8.812;2022-12-29T04:27:58;11.20;99.90
33837;DHT22;20140;49.356;8.812;2022-12-29T04:30:24;11.20;99.90
33837;DHT22;20140;49.356;8.812;2022-12-29T04:32:50;11.20;99.90
33837;DHT22;20140;49.356;8.812;2022-12-29T04:35:15;11.30;99.90
33837;DHT22;20140;49.356;8.812;2022-12-29T04:37:41;11.40;99.90
33837;DHT22;20140;49.356;8.812;2022-12-29T04:40:07;11.30;99.90
33837;DHT22;20140;49.356;8.812;2022-12-29T04:42:33;11.40;99.90
33837;DHT22;20140;49.356;8.812;2022-12-29T04:44:58;11.40;99.90
33837;DHT22;20140;49.356;8.812;2022-12-29T04:47:24;11.50;99.90
33837;DHT22;20140;49.356;8.812;2022-12-29T04:49:49;11.50;99.90
33837;DHT22;20140;49.356;8.812;2022-12-29T04:52:15;11.60;99.90
33837;DHT22;20140;49.356;8.812;2022-12-29T04:54:40;11.60;99.90
33837;DHT22;20140;49.356;8.812;2022-12-29T04:57:06;11.70;99.90
33837;DHT22;20140;49.356;8.812;2022-12-29T04:59:31;11.60;99.90
33837;DHT22;20140;49.356;8.812;2022-12-29T05:01:57;11.70;99.90
33837;DHT22;20140;49.356;8.812;2022-12-29T05:04:23;11.70;99.90
33837;DHT22;20140;49.356;8.812;2022-12-29T05:06:49;11.70;99.90
33837;DHT22;20140;49.356;8.812;2022-12-29T05:09:14;11.60;99.90
33837;DHT22;20140;49.356;8.812;2022-12-29T05:11:40;11.60;99.90
33837;DHT22;20140;49.356;8.812;2022-12-29T05:14:05;11.60;99.90
33837;DHT22;20140;49.356;8.812;2022-12-29T05:16:31;11.60;99.90
33837;DHT22;20140;49.356;8.812;2022-12-29T05:18:56;11.60;99.90
33837;DHT22;20140;49.356;8.812;2022-12-29T05:21:22;11.60;99.90
33837;DHT22;20140;49.356;8.812;2022-12-29T05:23:47;11.60;99.90
33837;DHT22;20140;49.356;8.812;2022-12-29T05:26:13;11.60;99.90
33837;DHT22;20140;49.356;8.812;2022-12-29T05:28:38;11.60;99.90
33837;DHT22;20140;49.356;8.812;2022-12-29T05:31:04;11.60;99.90
33837;DHT22;20140;49.356;8.812;2022-12-29T05:33:29;11.60;99.90
33837;DHT22;20140;49.356;8.812;2022-12-29T05:35:55;11.60;99.90
33837;DHT22;20140;49.356;8.812;2022-12-29T05:38:20;11.60;99.90
33837;DHT22;20140;49.356;8.812;2022-12-29T05:40:46;11.70;99.90
33837;DHT22;20140;49.356;8.812;2022-12-29T05:43:11;11.70;99.90
33837;DHT22;20140;49.356;8.812;2022-12-29T05:45:37;11.70;99.90
33837;DHT22;20140;49.356;8.812;2022-12-29T05:48:03;11.80;99.90
33837;DHT22;20140;49.356;8.812;2022-12-29T05:50:28;11.70;99.90
33837;DHT22;20140;49.356;8.812;2022-12-29T05:52:54;11.70;99.90
33837;DHT22;20140;49.356;8.812;2022-12-29T05:55:20;11.70;99.90
33837;DHT22;20140;49.356;8.812;2022-12-29T05:57:45;11.70;99.90
33837;DHT22;20140;49.356;8.812;2022-12-29T06:00:11;11.70;99.90
33837;DHT22;20140;49.356;8.812;2022-12-29T06:02:37;11.80;99.90
33837;DHT22;20140;49.356;8.812;2022-12-29T06:05:03;11.70;99.90
33837;DHT22;20140;49.356;8.812;2022-12-29T06:07:28;11.80;99.90
33837;DHT22;20140;49.356;8.812;2022-12-29T06:09:54;11.90;99.90
33837;DHT22;20140;49.356;8.812;2022-12-29T06:12:19;11.90;99.90
33837;DHT22;20140;49.356;8.812;2022-12-29T06:14:45;11.90;99.90
33837;DHT22;20140;49.356;8.812;2022-12-29T06:17:10;11.80;99.90
33837;DHT22;20140;49.356;8.812;2022-12-29T06:19:36;11.90;99.90
33837;DHT22;20140;49.356;8.812;2022-12-29T06:22:01;11.90;99.90
33837;DHT22;20140;49.356;8.812;2022-12-29T06:24:27;11.90;99.90
33837;DHT22;20140;49.356;8.812;2022-12-29T06:26:52;11.80;99.90
33837;DHT22;20140;49.356;8.812;2022-12-29T06:29:18;11.90;99.90
33837;DHT22;20140;49.356;8.812;2022-12-29T06:31:45;11.90;99.90
33837;DHT22;20140;49.356;8.812;2022-12-29T06:34:12;11.90;99.90
33837;DHT22;20140;49.356;8.812;2022-12-29T06:36:38;11.80;99.90
33837;DHT22;20140;49.356;8.812;2022-12-29T06:39:03;11.80;99.90
33837;DHT22;20140;49.356;8.812;2022-12-29T06:41:29;11.90;99.90
33837;DHT22;20140;49.356;8.812;2022-12-29T06:43:54;11.90;99.90
33837;DHT22;20140;49.356;8.812;2022-12-29T06:46:20;12.00;99.90
33837;DHT22;20140;49.356;8.812;2022-12-29T06:48:45;12.00;99.90
33837;DHT22;20140;49.356;8.812;2022-12-29T06:51:11;12.00;99.90
33837;DHT22;20140;49.356;8.812;2022-12-29T06:53:36;12.00;99.90
33837;DHT22;20140;49.356;8.812;2022-12-29T06:56:02;11.90;99.90
33837;DHT22;20140;49.356;8.812;2022-12-29T06:58:27;11.90;99.90
33837;DHT22;20140;49.356;8.812;2022-12-29T07:00:53;12.00;99.90
33837;DHT22;20140;49.356;8.812;2022-12-29T07:03:18;12.10;99.90
33837;DHT22;20140;49.356;8.812;2022-12-29T07:05:44;12.20;99.90
33837;DHT22;20140;49.356;8.812;2022-12-29T07:08:09;12.20;99.90
33837;DHT22;20140;49.356;8.812;2022-12-29T07:10:35;12.20;99.90
33837;DHT22;20140;49.356;8.812;2022-12-29T07:13:00;12.20;99.90
33837;DHT22;20140;49.356;8.812;2022-12-29T07:15:26;12.10;99.90
33837;DHT22;20140;49.356;8.812;2022-12-29T07:17:51;12.10;99.90
33837;DHT22;20140;49.356;8.812;2022-12-29T07:20:17;12.10;99.90
33837;DHT22;20140;49.356;8.812;2022-12-29T07:22:43;12.30;99.90
33837;DHT22;20140;49.356;8.812;2022-12-29T07:25:09;12.20;99.90
33837;DHT22;20140;49.356;8.812;2022-12-29T07:27:34;12.20;99.90
33837;DHT22;20140;49.356;8.812;2022-12-29T07:30:00;12.10;99.90
33837;DHT22;20140;49.356;8.812;2022-12-29T07:32:25;12.20;99.90
33837;DHT22;20140;49.356;8.812;2022-12-29T07:34:51;12.30;99.90
33837;DHT22;20140;49.356;8.812;2022-12-29T07:37:17;12.40;99.90
33837;DHT22;20140;49.356;8.812;2022-12-29T07:39:43;12.40;99.90
33837;DHT22;20140;49.356;8.812;2022-12-29T07:42:08;12.40;99.90
33837;DHT22;20140;49.356;8.812;2022-12-29T07:44:34;12.40;99.90
33837;DHT22;20140;49.356;8.812;2022-12-29T07:46:59;12.50;99.90
33837;DHT22;20140;49.356;8.812;2022-12-29T07:49:25;12.50;99.90
33837;DHT22;20140;49.356;8.812;2022-12-29T07:51:50;12.40;99.90
33837;DHT22;20140;49.356;8.812;2022-12-29T07:54:16;12.50;99.90
33837;DHT22;20140;49.356;8.812;2022-12-29T07:56:43;12.40;99.90
33837;DHT22;20140;49.356;8.812;2022-12-29T07:59:09;12.40;99.90
33837;DHT22;20140;49.356;8.812;2022-12-29T08:01:35;12.40;99.90
33837;DHT22;20140;49.356;8.812;2022-12-29T08:04:00;12.40;99.90
33837;DHT22;20140;49.356;8.812;2022-12-29T08:06:26;12.40;99.90
33837;DHT22;20140;49.356;8.812;2022-12-29T08:08:53;12.40;99.90
33837;DHT22;20140;49.356;8.812;2022-12-29T08:11:18;12.50;99.90
33837;DHT22;20140;49.356;8.812;2022-12-29T08:13:44;12.50;99.90
33837;DHT22;20140;49.356;8.812;2022-12-29T08:16:09;12.40;99.90
33837;DHT22;20140;49.356;8.812;2022-12-29T08:18:35;12.40;99.90
33837;DHT22;20140;49.356;8.812;2022-12-29T08:21:04;12.50;99.90
33837;DHT22;20140;49.356;8.812;2022-12-29T08:23:31;12.40;99.90
33837;DHT22;20140;49.356;8.812;2022-12-29T08:25:58;12.40;99.90
33837;DHT22;20140;49.356;8.812;2022-12-29T08:28:24;12.50;99.90
33837;DHT22;20140;49.356;8.812;2022-12-29T08:30:49;12.60;99.90
33837;DHT22;20140;49.356;8.812;2022-12-29T08:33:15;12.60;99.90
33837;DHT22;20140;49.356;8.812;2022-12-29T08:35:40;12.60;99.90
33837;DHT22;20140;49.356;8.812;2022-12-29T08:38:06;12.60;99.90
33837;DHT22;20140;49.356;8.812;2022-12-29T08:40:31;12.50;99.90
33837;DHT22;20140;49.356;8.812;2022-12-29T08:42:57;12.60;99.90
33837;DHT22;20140;49.356;8.812;2022-12-29T08:45:22;12.50;99.90
33837;DHT22;20140;49.356;8.812;2022-12-29T08:47:48;12.50;99.90
33837;DHT22;20140;49.356;8.812;2022-12-29T08:50:13;12.50;99.90
33837;DHT22;20140;49.356;8.812;2022-12-29T08:52:39;12.50;99.90
33837;DHT22;20140;49.356;8.812;2022-12-29T08:55:04;12.50;99.90
33837;DHT22;20140;49.356;8.812;2022-12-29T08:57:30;12.50;99.90
33837;DHT22;20140;49.356;8.812;2022-12-29T08:59:55;12.60;99.90
33837;DHT22;20140;49.356;8.812;2022-12-29T09:02:21;12.60;99.90
33837;DHT22;20140;49.356;8.812;2022-12-29T09:04:46;12.50;99.90
33837;DHT22;20140;49.356;8.812;2022-12-29T09:07:12;12.50;99.90
33837;DHT22;20140;49.356;8.812;2022-12-29T09:09:37;12.70;99.90
33837;DHT22;20140;49.356;8.812;2022-12-29T09:12:03;12.60;99.90
33837;DHT22;20140;49.356;8.812;2022-12-29T09:14:28;12.60;99.90
33837;DHT22;20140;49.356;8.812;2022-12-29T09:16:54;12.60;99.90
33837;DHT22;20140;49.356;8.812;2022-12-29T09:19:38;12.60;99.90
33837;DHT22;20140;49.356;8.812;2022-12-29T09:22:04;12.70;99.90
33837;DHT22;20140;49.356;8.812;2022-12-29T09:24:29;12.70;99.90
33837;DHT22;20140;49.356;8.812;2022-12-29T09:26:56;12.70;99.90
33837;DHT22;20140;49.356;8.812;2022-12-29T09:29:21;12.70;99.90
33837;DHT22;20140;49.356;8.812;2022-12-29T09:31:47;12.80;99.90
33837;DHT22;20140;49.356;8.812;2022-12-29T09:34:12;12.80;99.90
33837;DHT22;20140;49.356;8.812;2022-12-29T09:36:38;12.80;99.90
33837;DHT22;20140;49.356;8.812;2022-12-29T09:39:03;12.80;99.90
33837;DHT22;20140;49.356;8.812;2022-12-29T09:41:41;12.80;99.90
33837;DHT22;20140;49.356;8.812;2022-12-29T09:47:14;12.70;99.90
33837;DHT22;20140;49.356;8.812;2022-12-29T09:49:49;12.60;99.90
33837;DHT22;20140;49.356;8.812;2022-12-29T09:52:46;12.70;99.90
33837;DHT22;20140;49.356;8.812;2022-12-29T09:55:22;12.60;99.90
33837;DHT22;20140;49.356;8.812;2022-12-29T09:57:56;12.50;99.90
33837;DHT22;20140;49.356;8.812;2022-12-29T10:00:37;12.60;99.90
33837;DHT22;20140;49.356;8.812;2022-12-29T10:03:09;12.50;99.90
33837;DHT22;20140;49.356;8.812;2022-12-29T10:05:47;12.40;99.90
33837;DHT22;20140;49.356;8.812;2022-12-29T10:16:40;12.50;99.90
33837;DHT22;20140;49.356;8.812;2022-12-29T10:19:39;12.50;99.90
33837;DHT22;20140;49.356;8.812;2022-12-29T10:24:49;12.60;99.90
33837;DHT22;20140;49.356;8.812;2022-12-29T10:27:17;12.60;99.90
33837;DHT22;20140;49.356;8.812;2022-12-29T10:29:48;12.70;99.90
33837;DHT22;20140;49.356;8.812;2022-12-29T10:32:23;12.60;99.90
33837;DHT22;20140;49.356;8.812;2022-12-29T10:34:52;12.60;99.90
33837;DHT22;20140;49.356;8.812;2022-12-29T10:39:55;12.50;99.90
33837;DHT22;20140;49.356;8.812;2022-12-29T10:42:35;12.60;99.90
33837;DHT22;20140;49.356;8.812;2022-12-29T10:45:03;12.60;99.90
33837;DHT22;20140;49.356;8.812;2022-12-29T10:47:33;12.60;99.90
33837;DHT22;20140;49.356;8.812;2022-12-29T10:50:01;12.60;99.90
33837;DHT22;20140;49.356;8.812;2022-12-29T10:52:27;12.40;99.90
33837;DHT22;20140;49.356;8.812;2022-12-29T10:54:54;12.50;99.90
33837;DHT22;20140;49.356;8.812;2022-12-29T10:57:39;12.50;99.90
33837;DHT22;20140;49.356;8.812;2022-12-29T11:00:24;12.50;99.90
33837;DHT22;20140;49.356;8.812;2022-12-29T11:08:19;12.40;99.90
33837;DHT22;20140;49.356;8.812;2022-12-29T11:10:46;12.30;99.90
33837;DHT22;20140;49.356;8.812;2022-12-29T11:13:19;12.30;99.90
33837;DHT22;20140;49.356;8.812;2022-12-29T11:15:50;12.50;99.90
33837;DHT22;20140;49.356;8.812;2022-12-29T11:18:32;12.50;99.90
33837;DHT22;20140;49.356;8.812;2022-12-29T11:21:00;12.60;99.90
33837;DHT22;20140;49.356;8.812;2022-12-29T11:26:07;12.60;99.90
33837;DHT22;20140;49.356;8.812;2022-12-29T11:28:38;12.60;99.90
33837;DHT22;20140;49.356;8.812;2022-12-29T11:31:05;12.70;99.90
33837;DHT22;20140;49.356;8.812;2022-12-29T11:33:33;12.70;99.90
33837;DHT22;20140;49.356;8.812;2022-12-29T11:36:06;12.70;99.90
33837;DHT22;20140;49.356;8.812;2022-12-29T11:38:37;12.60;99.90
33837;DHT22;20140;49.356;8.812;2022-12-29T11:41:05;12.70;99.90
33837;DHT22;20140;49.356;8.812;2022-12-29T11:43:38;12.70;99.90
33837;DHT22;20140;49.356;8.812;2022-12-29T11:46:05;12.70;99.90
33837;DHT22;20140;49.356;8.812;2022-12-29T11:48:37;12.70;99.90
33837;DHT22;20140;49.356;8.812;2022-12-29T11:51:04;12.70;99.90
33837;DHT22;20140;49.356;8.812;2022-12-29T11:53:45;12.70;99.90
33837;DHT22;20140;49.356;8.812;2022-12-29T11:56:15;12.80;99.90
33837;DHT22;20140;49.356;8.812;2022-12-29T11:58:41;12.80;99.90
33837;DHT22;20140;49.356;8.812;2022-12-29T12:01:17;12.70;99.90
33837;DHT22;20140;49.356;8.812;2022-12-29T12:04:14;12.70;99.90
33837;DHT22;20140;49.356;8.812;2022-12-29T12:06:48;12.70;99.90
33837;DHT22;20140;49.356;8.812;2022-12-29T12:09:19;12.70;99.90
33837;DHT22;20140;49.356;8.812;2022-12-29T12:11:52;12.70;99.90
33837;DHT22;20140;49.356;8.812;2022-12-29T12:14:41;12.70;99.90
33837;DHT22;20140;49.356;8.812;2022-12-29T12:17:18;12.70;99.90
33837;DHT22;20140;49.356;8.812;2022-12-29T12:20:00;12.80;99.90
33837;DHT22;20140;49.356;8.812;2022-12-29T12:25:39;12.80;99.90
33837;DHT22;20140;49.356;8.812;2022-12-29T12:28:18;12.70;99.90
33837;DHT22;20140;49.356;8.812;2022-12-29T12:30:49;12.60;99.90
33837;DHT22;20140;49.356;8.812;2022-12-29T12:33:29;12.50;99.90
33837;DHT22;20140;49.356;8.812;2022-12-29T12:45:25;12.60;99.90
33837;DHT22;20140;49.356;8.812;2022-12-29T12:51:01;12.60;99.90
33837;DHT22;20140;49.356;8.812;2022-12-29T12:54:07;12.60;99.90
33837;DHT22;20140;49.356;8.812;2022-12-29T12:56:43;12.50;99.90
33837;DHT22;20140;49.356;8.812;2022-12-29T12:59:38;12.50;99.90
33837;DHT22;20140;49.356;8.812;2022-12-29T13:02:49;12.60;99.90
33837;DHT22;20140;49.356;8.812;2022-12-29T13:13:25;12.70;99.90
33837;DHT22;20140;49.356;8.812;2022-12-29T13:19:04;12.40;99.90
33837;DHT22;20140;49.356;8.812;2022-12-29T13:24:19;11.50;99.90
33837;DHT22;20140;49.356;8.812;2022-12-29T13:29:32;11.10;99.90
33837;DHT22;20140;49.356;8.812;2022-12-29T13:32:20;11.10;99.90
33837;DHT22;20140;49.356;8.812;2022-12-29T13:35:09;11.00;99.90
33837;DHT22;20140;49.356;8.812;2022-12-29T13:37:49;10.90;99.90
33837;DHT22;20140;49.356;8.812;2022-12-29T13:40:20;10.90;99.90
33837;DHT22;20140;49.356;8.812;2022-12-29T13:42:48;10.80;99.90
33837;DHT22;20140;49.356;8.812;2022-12-29T13:45:17;10.80;99.90
33837;DHT22;20140;49.356;8.812;2022-12-29T13:48:02;10.80;99.90
33837;DHT22;20140;49.356;8.812;2022-12-29T13:50:35;10.80;99.90
33837;DHT22;20140;49.356;8.812;2022-12-29T13:56:03;10.80;99.90
33837;DHT22;20140;49.356;8.812;2022-12-29T14:04:00;10.80;99.90
33837;DHT22;20140;49.356;8.812;2022-12-29T14:06:31;10.80;99.90
33837;DHT22;20140;49.356;8.812;2022-12-29T14:09:00;10.80;99.90
33837;DHT22;20140;49.356;8.812;2022-12-29T14:11:38;10.80;99.90
33837;DHT22;20140;49.356;8.812;2022-12-29T14:14:25;10.80;99.90
33837;DHT22;20140;49.356;8.812;2022-12-29T14:16:53;10.80;99.90
33837;DHT22;20140;49.356;8.812;2022-12-29T14:19:31;10.80;99.90
33837;DHT22;20140;49.356;8.812;2022-12-29T14:21:57;10.80;99.90
33837;DHT22;20140;49.356;8.812;2022-12-29T14:29:48;10.80;99.90
33837;DHT22;20140;49.356;8.812;2022-12-29T14:35:11;10.80;99.90
33837;DHT22;20140;49.356;8.812;2022-12-29T14:37:46;10.80;99.90
33837;DHT22;20140;49.356;8.812;2022-12-29T14:40:24;10.80;99.90
33837;DHT22;20140;49.356;8.812;2022-12-29T14:42:55;10.80;99.90
33837;DHT22;20140;49.356;8.812;2022-12-29T14:45:28;10.80;99.90
33837;DHT22;20140;49.356;8.812;2022-12-29T14:47:55;10.80;99.90
33837;DHT22;20140;49.356;8.812;2022-12-29T14:57:44;10.70;99.90
33837;DHT22;20140;49.356;8.812;2022-12-29T15:00:23;10.60;99.90
33837;DHT22;20140;49.356;8.812;2022-12-29T15:03:10;10.40;99.90
33837;DHT22;20140;49.356;8.812;2022-12-29T15:05:43;10.20;99.90
33837;DHT22;20140;49.356;8.812;2022-12-29T15:08:11;10.20;99.90
33837;DHT22;20140;49.356;8.812;2022-12-29T15:10:42;10.10;99.90
33837;DHT22;20140;49.356;8.812;2022-12-29T15:13:21;10.00;99.90
33837;DHT22;20140;49.356;8.812;2022-12-29T15:15:47;9.90;99.90
33837;DHT22;20140;49.356;8.812;2022-12-29T15:18:30;9.90;99.90
33837;DHT22;20140;49.356;8.812;2022-12-29T15:20:59;9.80;99.90
33837;DHT22;20140;49.356;8.812;2022-12-29T15:23:25;9.80;99.90
33837;DHT22;20140;49.356;8.812;2022-12-29T15:25:58;9.80;99.90
33837;DHT22;20140;49.356;8.812;2022-12-29T15:28:25;9.80;99.90
33837;DHT22;20140;49.356;8.812;2022-12-29T15:30:57;9.80;99.90
33837;DHT22;20140;49.356;8.812;2022-12-29T15:33:27;9.80;99.90
33837;DHT22;20140;49.356;8.812;2022-12-29T15:35:54;9.90;99.90
33837;DHT22;20140;49.356;8.812;2022-12-29T15:38:28;9.90;99.90
33837;DHT22;20140;49.356;8.812;2022-12-29T15:40:59;9.80;99.90
33837;DHT22;20140;49.356;8.812;2022-12-29T15:46:30;9.80;99.90
33837;DHT22;20140;49.356;8.812;2022-12-29T15:48:56;9.80;99.90
33837;DHT22;20140;49.356;8.812;2022-12-29T15:51:29;9.70;99.90
33837;DHT22;20140;49.356;8.812;2022-12-29T15:53:56;9.80;99.90
33837;DHT22;20140;49.356;8.812;2022-12-29T15:56:22;9.70;99.90
33837;DHT22;20140;49.356;8.812;2022-12-29T15:58:50;9.70;99.90
33837;DHT22;20140;49.356;8.812;2022-12-29T16:01:32;9.60;99.90
33837;DHT22;20140;49.356;8.812;2022-12-29T16:04:00;9.50;99.90
33837;DHT22;20140;49.356;8.812;2022-12-29T16:06:34;9.50;99.90
33837;DHT22;20140;49.356;8.812;2022-12-29T16:09:02;9.50;99.90
33837;DHT22;20140;49.356;8.812;2022-12-29T16:11:36;9.40;99.90
33837;DHT22;20140;49.356;8.812;2022-12-29T16:14:10;9.40;99.90
33837;DHT22;20140;49.356;8.812;2022-12-29T16:16:41;9.30;99.90
33837;DHT22;20140;49.356;8.812;2022-12-29T16:19:13;9.30;99.90
33837;DHT22;20140;49.356;8.812;2022-12-29T16:21:41;9.30;99.90
33837;DHT22;20140;49.356;8.812;2022-12-29T16:24:13;9.30;99.90
33837;DHT22;20140;49.356;8.812;2022-12-29T16:26:48;9.30;99.90
33837;DHT22;20140;49.356;8.812;2022-12-29T16:29:15;9.40;99.90
33837;DHT22;20140;49.356;8.812;2022-12-29T16:31:56;9.30;99.90
33837;DHT22;20140;49.356;8.812;2022-12-29T16:39:46;9.40;99.90
33837;DHT22;20140;49.356;8.812;2022-12-29T16:42:32;9.30;99.90
33837;DHT22;20140;49.356;8.812;2022-12-29T16:50:34;9.30;99.90
33837;DHT22;20140;49.356;8.812;2022-12-29T16:53:01;9.30;99.90
33837;DHT22;20140;49.356;8.812;2022-12-29T16:55:28;9.20;99.90
33837;DHT22;20140;49.356;8.812;2022-12-29T16:57:55;9.20;99.90
33837;DHT22;20140;49.356;8.812;2022-12-29T17:00:24;9.20;99.90
33837;DHT22;20140;49.356;8.812;2022-12-29T17:03:01;9.30;99.90
33837;DHT22;20140;49.356;8.812;2022-12-29T17:05:27;9.30;99.90
33837;DHT22;20140;49.356;8.812;2022-12-29T17:07:53;9.40;99.90
33837;DHT22;20140;49.356;8.812;2022-12-29T17:10:18;9.40;99.90
33837;DHT22;20140;49.356;8.812;2022-12-29T17:12:46;9.40;99.90
33837;DHT22;20140;49.356;8.812;2022-12-29T17:15:24;9.40;99.90
33837;DHT22;20140;49.356;8.812;2022-12-29T17:17:51;9.40;99.90
33837;DHT22;20140;49.356;8.812;2022-12-29T17:20:27;9.50;99.90
33837;DHT22;20140;49.356;8.812;2022-12-29T17:22:54;9.50;99.90
33837;DHT22;20140;49.356;8.812;2022-12-29T17:25:22;9.40;99.90
33837;DHT22;20140;49.356;8.812;2022-12-29T17:27:58;9.50;99.90
33837;DHT22;20140;49.356;8.812;2022-12-29T17:30:25;9.50;99.90
33837;DHT22;20140;49.356;8.812;2022-12-29T17:33:14;9.50;99.90
33837;DHT22;20140;49.356;8.812;2022-12-29T17:35:41;9.50;99.90
33837;DHT22;20140;49.356;8.812;2022-12-29T17:38:21;9.50;99.90
33837;DHT22;20140;49.356;8.812;2022-12-29T17:40:48;9.50;99.90
33837;DHT22;20140;49.356;8.812;2022-12-29T17:43:15;9.50;99.90
33837;DHT22;20140;49.356;8.812;2022-12-29T17:45:41;9.50;99.90
33837;DHT22;20140;49.356;8.812;2022-12-29T17:48:12;9.50;99.90
33837;DHT22;20140;49.356;8.812;2022-12-29T17:50:38;9.40;99.90
33837;DHT22;20140;49.356;8.812;2022-12-29T17:53:06;9.50;99.90
33837;DHT22;20140;49.356;8.812;2022-12-29T17:55:32;9.40;99.90
33837;DHT22;20140;49.356;8.812;2022-12-29T17:57:58;9.40;99.90